Airport ICAO


11:52 UTC

25°C

Clear skies


An affordable passengers' Moving Map for your aircraft. Made for the iPad and the iPhone
More information here

LFPT Cormeilles En Vexin


Pontoise FRANCE   VFR CAVOK


METAR LFPT 191130Z AUTO 13005KT 100V160 CAVOK 25/11 Q1024 0h22min





NOTAMS

OPEN